createdAt,value
2024-03-16T00:00:09.185Z,10.38
2024-03-16T00:02:35.844Z,11.23
2024-03-16T00:05:02.512Z,13.98
2024-03-16T00:07:29.198Z,12.25
2024-03-16T00:09:56.268Z,15.48
2024-03-16T00:12:25.820Z,13.68
2024-03-16T00:14:52.520Z,14.75
2024-03-16T00:17:20.600Z,15.40
2024-03-16T00:19:47.258Z,15.27
2024-03-16T00:22:14.014Z,16.23
2024-03-16T00:24:40.721Z,14.45
2024-03-16T00:27:08.689Z,15.27
2024-03-16T00:29:35.409Z,15.23
2024-03-16T00:32:02.634Z,13.77
2024-03-16T00:34:29.388Z,14.60
2024-03-16T00:36:56.095Z,15.25
2024-03-16T00:39:25.005Z,13.48
2024-03-16T00:41:51.876Z,13.88
2024-03-16T00:44:19.420Z,14.27
2024-03-16T00:46:46.753Z,13.23
2024-03-16T00:49:13.536Z,12.52
2024-03-16T00:51:42.285Z,12.15
2024-03-16T00:54:12.358Z,10.70
2024-03-16T00:56:39.932Z,10.32
2024-03-16T00:59:06.785Z,10.45
2024-03-16T01:01:36.293Z,11.23
2024-03-16T01:04:03.860Z,10.85
2024-03-16T01:06:30.745Z,12.50
2024-03-16T01:08:57.678Z,13.07
2024-03-16T01:11:27.877Z,12.93
2024-03-16T01:13:54.751Z,14.02
2024-03-16T01:16:21.571Z,14.00
2024-03-16T01:18:48.883Z,14.95
2024-03-16T01:21:16.348Z,14.77
2024-03-16T01:23:42.990Z,15.57
2024-03-16T01:26:10.772Z,15.57
2024-03-16T01:28:37.460Z,15.60
2024-03-16T01:31:05.228Z,15.93
2024-03-16T01:33:31.998Z,14.50
2024-03-16T01:35:58.713Z,15.52
2024-03-16T01:38:25.452Z,14.57
2024-03-16T01:40:52.131Z,15.43
2024-03-16T01:43:18.764Z,15.57
2024-03-16T01:45:46.941Z,14.88
2024-03-16T01:48:13.896Z,14.32
2024-03-16T01:50:42.504Z,15.32
2024-03-16T01:55:37.736Z,14.77
2024-03-16T01:58:08.406Z,13.75
2024-03-16T02:00:35.798Z,13.02
2024-03-16T02:03:03.382Z,13.57
2024-03-16T02:05:30.413Z,13.57
2024-03-16T02:07:57.124Z,12.85
2024-03-16T02:10:23.770Z,12.90
2024-03-16T02:12:50.498Z,12.02
2024-03-16T02:15:17.414Z,12.45
2024-03-16T02:17:47.256Z,10.55
2024-03-16T02:20:17.274Z,10.70
2024-03-16T02:22:44.302Z,11.73
2024-03-16T02:25:12.122Z,12.20
2024-03-16T02:27:41.598Z,10.80
2024-03-16T02:30:12.024Z,11.85
2024-03-16T02:32:38.818Z,12.90
2024-03-16T02:35:08.952Z,10.93
2024-03-16T02:37:35.884Z,11.35
2024-03-16T02:40:05.208Z,11.35
2024-03-16T02:42:31.993Z,11.68
2024-03-16T02:44:58.697Z,10.77
2024-03-16T02:47:25.577Z,11.25
2024-03-16T02:49:53.684Z,10.95
2024-03-16T02:52:20.374Z,10.48
2024-03-16T02:54:47.073Z,10.25
2024-03-16T02:57:13.728Z,9.63
2024-03-16T02:59:41.433Z,10.57
2024-03-16T03:02:08.134Z,9.88
2024-03-16T03:04:35.458Z,10.45
2024-03-16T03:07:02.741Z,11.55
2024-03-16T03:09:30.608Z,9.35
2024-03-16T03:11:57.333Z,11.32
2024-03-16T03:14:23.954Z,10.88
2024-03-16T03:16:50.590Z,10.63
2024-03-16T03:19:17.345Z,11.05
2024-03-16T03:21:44.060Z,10.13
2024-03-16T03:24:10.764Z,10.93
2024-03-16T03:26:37.412Z,11.60
2024-03-16T03:29:04.071Z,10.38
2024-03-16T03:31:30.888Z,10.63
2024-03-16T03:33:57.630Z,10.27
2024-03-16T03:36:24.257Z,10.43
2024-03-16T03:38:50.923Z,11.02
2024-03-16T03:41:19.704Z,11.73
2024-03-16T03:43:48.709Z,11.07
2024-03-16T03:46:35.775Z,10.93
2024-03-16T03:49:12.457Z,10.13
2024-03-16T03:51:39.987Z,11.43
2024-03-16T03:54:07.765Z,11.75
2024-03-16T03:56:35.736Z,10.95
2024-03-16T03:59:03.481Z,11.45
2024-03-16T04:01:30.246Z,11.63
2024-03-16T04:03:57.351Z,11.32
2024-03-16T04:06:26.174Z,11.50
2024-03-16T04:08:52.821Z,11.98
2024-03-16T04:11:19.530Z,13.40
2024-03-16T04:13:46.195Z,13.70
2024-03-16T04:16:15.767Z,12.93
2024-03-16T04:18:43.014Z,14.02
2024-03-16T04:21:09.828Z,13.75
2024-03-16T04:23:36.516Z,13.55
2024-03-16T04:26:04.087Z,14.45
2024-03-16T04:28:30.765Z,14.70
2024-03-16T04:30:57.472Z,14.73
2024-03-16T04:33:24.130Z,14.40
2024-03-16T04:35:50.730Z,12.82
2024-03-16T04:38:18.685Z,14.80
2024-03-16T04:40:45.387Z,13.38
2024-03-16T04:43:12.337Z,13.70
2024-03-16T04:45:39.071Z,12.82
2024-03-16T04:48:05.929Z,13.15
2024-03-16T04:50:32.629Z,13.07
2024-03-16T04:52:59.324Z,13.38
2024-03-16T04:55:26.029Z,13.52
2024-03-16T04:57:52.667Z,12.98
2024-03-16T05:00:19.454Z,13.32
2024-03-16T05:02:46.126Z,12.57
2024-03-16T05:05:12.817Z,12.38
2024-03-16T05:07:39.522Z,12.48
2024-03-16T05:10:06.562Z,13.07
2024-03-16T05:12:33.231Z,13.30
2024-03-16T05:14:59.965Z,13.30
2024-03-16T05:17:27.204Z,13.30
2024-03-16T05:19:54.154Z,13.70
2024-03-16T05:22:20.877Z,13.48
2024-03-16T05:24:47.587Z,13.13
2024-03-16T05:27:16.317Z,12.85
2024-03-16T05:29:43.417Z,13.43
2024-03-16T05:32:10.205Z,13.10
2024-03-16T05:34:36.867Z,11.93
2024-03-16T05:37:03.699Z,13.43
2024-03-16T05:39:30.411Z,13.52
2024-03-16T05:41:57.334Z,12.95
2024-03-16T05:44:23.965Z,13.15
2024-03-16T05:46:50.593Z,12.73
2024-03-16T05:49:17.321Z,12.07
2024-03-16T05:51:44.532Z,12.98
2024-03-16T05:54:11.198Z,12.20
2024-03-16T05:56:38.654Z,12.27
2024-03-16T05:59:05.351Z,11.35
2024-03-16T06:01:32.102Z,12.00
2024-03-16T06:03:58.825Z,11.50
2024-03-16T06:06:25.972Z,11.77
2024-03-16T06:08:52.661Z,12.48
2024-03-16T06:11:19.319Z,11.65
2024-03-16T06:13:46.526Z,8.18
2024-03-16T06:16:13.375Z,8.60
2024-03-16T06:18:44.240Z,8.60
2024-03-16T06:21:12.065Z,7.22
2024-03-16T06:23:39.165Z,4.45
2024-03-16T06:26:07.429Z,4.00
2024-03-16T06:28:39.235Z,3.33
2024-03-16T06:31:12.456Z,3.40
2024-03-16T06:33:46.436Z,3.40
2024-03-16T06:36:13.276Z,2.92
2024-03-16T06:38:39.996Z,3.50
2024-03-16T06:41:06.628Z,3.30
2024-03-16T06:43:33.773Z,2.97
2024-03-16T06:46:02.154Z,2.80
2024-03-16T06:48:29.124Z,2.38
2024-03-16T06:50:55.796Z,2.50
2024-03-16T06:53:23.113Z,2.90
2024-03-16T06:55:52.699Z,2.70
2024-03-16T06:58:19.386Z,2.20
2024-03-16T07:00:46.186Z,2.85
2024-03-16T07:03:15.345Z,2.30
2024-03-16T07:05:42.118Z,2.60
2024-03-16T07:08:11.946Z,2.30
2024-03-16T07:10:39.369Z,2.30
2024-03-16T07:13:07.027Z,2.55
2024-03-16T07:15:34.169Z,1.80
2024-03-16T07:18:00.922Z,2.58
2024-03-16T07:20:27.576Z,2.55
2024-03-16T07:22:55.457Z,2.35
2024-03-16T07:25:22.248Z,2.05
2024-03-16T07:27:49.322Z,2.53
2024-03-16T07:30:18.371Z,2.22
2024-03-16T07:32:45.087Z,2.20
2024-03-16T07:35:12.549Z,1.95
2024-03-16T07:37:39.232Z,1.83
2024-03-16T07:40:07.646Z,2.13
2024-03-16T07:45:01.080Z,1.90
2024-03-16T07:47:27.717Z,1.40
2024-03-16T07:49:54.386Z,1.70
2024-03-16T07:52:21.101Z,1.50
2024-03-16T07:54:47.762Z,1.27
2024-03-16T07:57:14.420Z,1.80
2024-03-16T07:59:41.072Z,1.60
2024-03-16T08:02:07.869Z,1.63
2024-03-16T08:04:36.198Z,1.70
2024-03-16T08:07:04.239Z,1.80
2024-03-16T08:09:31.826Z,1.50
2024-03-16T08:11:58.570Z,1.30
2024-03-16T08:14:25.836Z,1.52
2024-03-16T08:16:53.009Z,1.65
2024-03-16T08:19:20.871Z,1.20
2024-03-16T08:21:50.125Z,1.10
2024-03-16T08:24:17.552Z,1.20
2024-03-16T08:26:44.914Z,1.52
2024-03-16T08:29:12.346Z,1.20
2024-03-16T08:31:39.078Z,1.30
2024-03-16T08:34:05.901Z,1.40
2024-03-16T08:36:32.713Z,1.67
2024-03-16T08:38:59.529Z,1.58
2024-03-16T08:41:26.182Z,1.40
2024-03-16T08:43:52.854Z,1.60
2024-03-16T08:46:19.600Z,1.80
2024-03-16T08:48:48.206Z,1.70
2024-03-16T08:53:41.456Z,1.73
2024-03-16T08:56:08.351Z,2.20
2024-03-16T08:58:35.207Z,2.63
2024-03-16T09:01:02.722Z,2.08
2024-03-16T09:03:29.484Z,2.40
2024-03-16T09:05:56.159Z,2.47
2024-03-16T09:08:22.828Z,2.60
2024-03-16T09:10:49.460Z,2.63
2024-03-16T09:13:16.218Z,2.45
2024-03-16T09:15:42.935Z,3.03
2024-03-16T09:18:10.759Z,2.53
2024-03-16T09:20:41.337Z,2.30
2024-03-16T09:23:09.645Z,1.92
2024-03-16T09:25:37.809Z,1.90
2024-03-16T09:28:04.732Z,2.05
2024-03-16T09:30:33.549Z,1.70
2024-03-16T09:33:00.714Z,1.48
2024-03-16T09:35:27.571Z,1.55
2024-03-16T09:37:54.246Z,1.60
2024-03-16T09:40:21.124Z,2.17
